Latest Weather Observations for Casino

IDN60801

Issued at 11:32 am EST Tuesday 21 April 2015 (issued every 30 minutes, with the page automatically refreshed every 10 minutes)

About weather observations | Map of weather stations | Latest weather observations for NSW | Other Formats
Station Details ID: 058208 Name: CASINO AIRPORT AWS Lat: -28.88 Lon: 153.06 Height: 20.9 m
Data from the previous 72 hours. | See also: Recent months at Casino
Date/Time
EST
Temp
°C
App
Temp
°C
Dew
Point
Rel
Hum
%
Delta-T
°C
Wind Press
QNH
hPa
Press
MSL
hPa
Rain
since 9 am
mm
Dir
 
Spd
km/h
Gust
km/h
Spd
kts
Gust
kts
21/11:30am 19.7 13.9 4.2 36 7.4 NW 24 32 13 17 1015.6 1015.5 0.0
21/11:00am 20.7 15.6 5.9 38 7.4 NW 22 32 12 17 1016.0 1015.9 0.0
21/10:30am 20.1 14.4 6.8 42 6.7 NW 26 37 14 20 1016.0 1015.9 0.0
21/10:00am 18.3 13.3 6.5 46 5.9 NW 22 32 12 17 1016.3 1016.2 0.0
21/09:30am 18.2 14.0 7.6 50 5.4 NNW 19 28 10 15 1016.7 1016.6 0.0
21/09:00am 17.8 13.8 8.1 53 4.9 NNW 19 28 10 15 1016.8 1016.7 0.8
21/08:30am 16.6 12.7 8.6 59 4.1 NNW 19 26 10 14 1017.0 1016.9 0.8
21/08:00am 16.1 12.7 9.3 64 3.5 NNW 17 24 9 13 1016.8 1016.7 0.8
21/07:30am 15.2 12.7 9.6 69 2.9 NNW 13 22 7 12 1016.6 1016.5 0.8
21/07:00am 14.3 11.6 10.3 77 2.1 NNW 15 20 8 11 1016.3 1016.2 0.8
21/06:30am 13.3 10.5 9.9 80 1.7 NNW 15 20 8 11 1016.1 1016.0 0.8
21/06:00am 13.1 10.7 9.9 81 1.6 NNW 13 19 7 10 1016.0 1015.9 0.8
21/05:30am 13.2 10.5 10.4 83 1.5 NW 15 19 8 10 1015.9 1015.8 0.8
21/05:00am 13.2 11.3 10.6 84 1.4 NW 11 13 6 7 1016.0 1015.9 0.8
21/04:30am 13.7 11.5 10.9 83 1.5 NW 13 15 7 8 1015.7 1015.6 0.8
21/04:00am 13.9 12.5 10.9 82 1.6 NW 9 13 5 7 1015.6 1015.5 0.8
21/03:30am 14.3 11.9 11.3 82 1.6 NW 15 19 8 10 1015.7 1015.6 0.8
21/03:00am 15.0 11.8 11.8 81 1.7 NW 20 26 11 14 1015.4 1015.3 0.8
21/02:30am 15.2 12.7 12.3 83 1.6 NW 17 22 9 12 1015.3 1015.2 0.8
21/02:00am 15.1 12.6 12.4 84 1.5 NW 17 20 9 11 1015.2 1015.1 0.8
21/01:30am 15.3 14.2 13.0 86 1.3 NW 11 15 6 8 1015.3 1015.2 0.8
21/01:00am 15.7 14.3 13.5 87 1.2 NW 13 15 7 8 1016.1 1016.0 0.8
21/12:30am 16.5 15.4 14.3 87 1.3 NW 13 17 7 9 1016.2 1016.1 0.8
21/12:00am 17.0 16.2 15.2 89 1.0 NW 13 15 7 8 1016.4 1016.3 0.8
 
Date/Time
EST
Temp
°C
App
Temp
°C
Dew
Point
Rel
Hum
%
Delta-T
°C
Wind Press
QNH
hPa
Press
MSL
hPa
Rain
since 9 am
mm
Dir
 
Spd
km/h
Gust
km/h
Spd
kts
Gust
kts
20/11:30pm 17.5 17.3 15.7 89 1.1 NW 11 15 6 8 1016.7 1016.6 0.8
20/11:00pm 17.8 17.9 16.5 92 0.8 NW 11 13 6 7 1016.4 1016.3 0.8
20/10:30pm 17.8 18.3 16.5 92 0.8 N 9 13 5 7 1017.2 1017.1 0.6
20/10:00pm 17.9 19.3 16.4 91 0.9 NW 4 7 2 4 1017.0 1016.9 0.6
20/09:30pm 18.1 19.1 16.8 92 0.8 NW 7 11 4 6 1017.3 1017.2 0.6
20/09:00pm 18.2 19.4 16.9 92 0.8 NW 6 7 3 4 1017.4 1017.3 0.6
20/08:30pm 18.2 19.2 16.9 92 0.8 WSW 7 9 4 5 1017.1 1017.0 0.6
20/08:00pm 18.1 19.9 16.4 90 1.0 ESE 2 11 1 6 1016.8 1016.7 0.6
20/07:30pm 18.3 20.5 16.6 90 1.0 CALM 0 0 0 0 1017.4 1017.3 0.6
20/07:00pm 18.5 20.1 16.8 90 1.0 N 4 9 2 5 1017.3 1017.2 0.4
20/06:30pm 18.3 19.2 16.6 90 1.0 NW 7 11 4 6 1017.0 1016.9 0.4
20/06:00pm 18.2 19.0 16.4 89 1.1 NNE 7 9 4 5 1016.4 1016.3 0.4
20/05:30pm 18.5 19.5 16.3 87 1.3 NNW 6 9 3 5 1016.9 1016.8 0.2
20/05:00pm 18.7 19.0 16.1 85 1.5 N 9 13 5 7 1016.9 1016.8 0.2
20/04:30pm 19.2 20.1 16.6 85 1.6 NW 7 11 4 6 1016.7 1016.6 0.2
20/04:00pm 19.1 20.0 16.7 86 1.4 NNW 7 9 4 5 1016.4 1016.3 0.2
20/03:30pm 19.0 19.1 16.6 86 1.4 N 11 13 6 7 1016.1 1016.0 0.2
20/03:00pm 19.5 19.3 16.7 84 1.7 N 13 17 7 9 1016.5 1016.4 0.2
20/02:30pm 19.9 20.2 16.9 83 1.8 NNW 11 15 6 8 1016.7 1016.6 0.2
20/02:00pm 19.9 20.5 16.9 83 1.8 NW 9 13 5 7 1016.5 1016.4 0.2
20/01:30pm 19.7 19.9 16.7 83 1.8 NNW 11 13 6 7 1016.7 1016.6 0.2
20/01:00pm 19.9 20.1 16.7 82 1.9 NW 11 17 6 9 1017.0 1016.9 0.2
20/12:30pm 19.6 20.0 16.3 81 2.0 NNW 9 11 5 6 1017.4 1017.3 0.2
20/12:00pm 19.6 20.4 16.3 81 2.0 WNW 7 11 4 6 1017.8 1017.7 0.0
20/11:30am 19.5 20.5 16.3 82 1.9 NW 6 11 3 6 1017.9 1017.8 0.0
20/11:00am 19.3 19.9 16.7 85 1.6 NW 9 13 5 7 1018.5 1018.4 0.0
20/10:30am 18.8 19.2 16.4 86 1.4 NW 9 13 5 7 1019.3 1019.2 0.0
20/10:00am 18.3 19.0 16.1 87 1.3 W 7 11 4 6 1019.3 1019.2 0.0
20/09:30am 18.2 19.1 16.0 87 1.3 WSW 6 13 3 7 1019.5 1019.4 0.0
20/09:00am 18.0 18.7 16.2 89 1.1 W 7 9 4 5 1019.6 1019.5 7.6
20/08:30am 17.5 17.8 16.0 91 0.9 W 9 13 5 7 1019.6 1019.5 7.6
20/08:00am 17.5 17.9 16.2 92 0.8 W 9 13 5 7 1019.5 1019.4 7.4
20/07:30am 17.5 17.6 16.4 93 0.7 NW 11 15 6 8 1019.3 1019.2 7.4
20/07:00am 17.3 18.0 16.2 93 0.7 WSW 7 11 4 6 1019.2 1019.1 7.4
20/06:30am 17.2 18.0 15.9 92 0.8 N 6 7 3 4 1018.7 1018.6 6.8
20/06:00am 17.2 17.7 15.5 90 1.0 E 7 9 4 5 1019.1 1019.0 6.6
20/05:30am 17.4 18.1 15.7 90 1.0 SW 6 6 3 3 1019.5 1019.4 5.6
20/05:00am 17.5 18.2 15.7 89 1.1 S 6 7 3 4 1019.4 1019.3 3.8
20/04:30am 17.6 19.2 15.9 90 1.0 SSW 2 7 1 4 1018.9 1018.8 3.4
20/04:00am 17.7 19.2 15.7 88 1.2 SE 2 6 1 3 1018.4 1018.3 3.0
20/03:30am 18.1 18.0 16.1 88 1.2 S 11 17 6 9 1018.2 1018.1 2.8
20/03:00am 18.3 18.0 16.5 89 1.1 S 13 17 7 9 1018.3 1018.2 2.4
20/02:30am 18.7 19.8 17.0 90 1.0 S 7 11 4 6 1018.6 1018.5 1.4
20/02:00am 19.1 19.6 17.4 90 1.0 SSW 11 17 6 9 1018.4 1018.3 0.8
20/01:30am 19.2 20.1 17.5 90 1.0 SSW 9 13 5 7 1018.3 1018.2 0.4
20/01:00am 19.3 20.5 17.3 88 1.2 S 7 11 4 6 1018.5 1018.4 0.2
20/12:30am 19.5 21.4 17.6 89 1.2 SSW 4 6 2 3 1018.8 1018.7 0.2
20/12:00am 19.7 21.1 17.8 89 1.2 S 7 11 4 6 1019.0 1018.9 0.2
 
Date/Time
EST
Temp
°C
App
Temp
°C
Dew
Point
Rel
Hum
%
Delta-T
°C
Wind Press
QNH
hPa
Press
MSL
hPa
Rain
since 9 am
mm
Dir
 
Spd
km/h
Gust
km/h
Spd
kts
Gust
kts
19/11:30pm 19.9 21.6 18.0 89 1.2 SSW 6 9 3 5 1019.3 1019.2 0.0
19/11:00pm 20.0 22.6 18.3 90 1.1 SSW 2 7 1 4 1019.3 1019.2 0.0
19/10:30pm 19.7 22.1 18.0 90 1.0 W 2 6 1 3 1019.4 1019.3 0.0
19/10:00pm 19.5 22.1 17.6 89 1.2 CALM 0 0 0 0 1019.5 1019.4 0.0
19/09:30pm 19.8 22.6 17.9 89 1.2 CALM 0 0 0 0 1019.4 1019.3 0.0
19/09:00pm 19.7 22.4 17.8 89 1.2 CALM 0 0 0 0 1019.3 1019.2 0.0
19/08:30pm 19.8 22.6 17.9 89 1.2 CALM 0 0 0 0 1019.0 1018.9 0.0
19/08:00pm 20.2 22.5 17.8 86 1.5 NW 2 6 1 3 1019.1 1019.0 0.0
19/07:30pm 21.0 22.8 18.4 85 1.6 WNW 6 7 3 4 1018.8 1018.7 0.0
19/07:00pm 20.8 22.7 18.6 87 1.4 W 6 7 3 4 1018.5 1018.4 0.0
19/06:30pm 20.6 22.4 18.2 86 1.5 SW 6 7 3 4 1018.0 1017.9 0.0
19/06:00pm 20.8 22.5 18.0 84 1.7 S 6 7 3 4 1017.8 1017.7 0.0
19/05:30pm 21.5 23.5 17.9 80 2.2 W 4 7 2 4 1017.6 1017.5 0.0
19/05:00pm 21.9 22.9 17.7 77 2.6 NW 9 13 5 7 1017.3 1017.2 0.0
19/04:30pm 22.1 23.5 17.9 77 2.6 NNW 7 11 4 6 1016.9 1016.8 0.0
19/04:00pm 22.5 23.9 17.4 73 3.1 W 6 9 3 5 1016.6 1016.5 0.0
19/03:30pm 22.6 23.5 17.5 73 3.2 W 9 11 5 6 1017.0 1016.9 0.0
19/03:00pm 22.9 23.4 17.4 71 3.4 W 11 17 6 9 1017.2 1017.1 0.0
19/02:30pm 25.0 23.8 16.2 58 5.4 NW 17 22 9 12 1016.7 1016.6 0.0
19/02:00pm 25.3 25.5 16.7 59 5.3 W 11 17 6 9 1016.6 1016.5 0.0
19/01:30pm 26.1 26.2 17.5 59 5.4 W 13 20 7 11 1016.8 1016.7 0.0
19/01:00pm 26.4 25.9 16.9 56 5.9 W 15 24 8 13 1017.0 1016.9 0.0
19/12:30pm 27.3 26.3 16.6 52 6.6 WNW 17 24 9 13 1017.1 1017.0 0.0
19/12:00pm 27.0 26.9 16.9 54 6.3 W 13 20 7 11 1017.5 1017.4 0.0
19/11:30am 28.6 29.4 18.1 53 6.7 WNW 11 17 6 9 1018.1 1018.0 0.0
19/11:00am 26.9 26.6 17.4 56 6.0 WNW 15 26 8 14 1018.6 1018.5 0.0
19/10:30am 27.5 26.3 17.4 54 6.4 NW 20 28 11 15 1018.7 1018.6 0.0
19/10:00am 25.9 25.7 17.5 59 5.3 WNW 15 26 8 14 1018.8 1018.7 0.0
19/09:30am 25.6 26.3 18.8 66 4.3 WNW 13 19 7 10 1018.9 1018.8 0.0
19/09:00am 24.1 25.0 18.5 71 3.5 WNW 11 17 6 9 1018.9 1018.8 0.0
19/08:30am 22.8 25.7 19.0 79 2.4 N 2 7 1 4 1018.9 1018.8 0.0
19/08:00am 21.2 24.0 18.0 82 2.0 CALM 0 4 0 2 1018.6 1018.5 0.0
19/07:30am 20.0 23.1 18.7 92 0.8 CALM 0 0 0 0 1018.3 1018.2 0.0
19/07:00am 18.5 19.7 17.3 93 0.7 NW 7 7 4 4 1018.2 1018.1 0.0
19/06:30am 16.6 17.9 15.1 91 0.9 SSW 2 6 1 3 1017.8 1017.7 0.0
19/06:00am 16.9 17.3 15.2 90 1.0 NW 7 11 4 6 1017.6 1017.5 0.0
19/05:30am 16.6 17.0 14.8 89 1.0 SW 6 9 3 5 1017.2 1017.1 0.0
19/05:00am 18.1 17.7 15.2 83 1.7 NNE 11 20 6 11 1016.9 1016.8 0.0
19/04:30am 16.6 16.5 15.0 90 0.9 N 9 11 5 6 1017.2 1017.1 0.0
19/04:00am 16.6 17.1 15.1 91 0.9 NW 6 7 3 4 1017.3 1017.2 0.0
19/03:30am 17.4 18.2 15.9 91 0.9 NW 6 7 3 4 1017.3 1017.2 0.0
19/03:00am 16.9 17.5 15.2 90 1.0 NNW 6 7 3 4 1017.4 1017.3 0.0
19/02:30am 16.8 18.4 14.8 88 1.2 CALM 0 6 0 3 1017.6 1017.5 0.0
19/02:00am 17.5 19.0 15.8 90 1.0 SSE 2 6 1 3 1017.9 1017.8 0.0
19/01:30am 17.5 18.1 15.7 89 1.1 NNE 7 9 4 5 1018.4 1018.3 0.0
19/01:00am 17.7 19.3 15.9 89 1.1 NW 2 7 1 4 1019.0 1018.9 0.0
19/12:30am 17.8 18.7 16.0 89 1.1 SE 6 11 3 6 1019.1 1019.0 0.0
19/12:00am 17.9 19.8 15.7 87 1.3 CALM 0 0 0 0 1019.2 1019.1 0.0
 
Date/Time
EST
Temp
°C
App
Temp
°C
Dew
Point
Rel
Hum
%
Delta-T
°C
Wind Press
QNH
hPa
Press
MSL
hPa
Rain
since 9 am
mm
Dir
 
Spd
km/h
Gust
km/h
Spd
kts
Gust
kts
18/11:30pm 18.7 19.5 15.8 83 1.7 N 6 7 3 4 1019.4 1019.3 0.0
18/11:00pm 19.4 20.2 17.2 87 1.3 NNW 9 11 5 6 1019.6 1019.5 0.0
18/10:30pm 18.8 19.4 15.9 83 1.7 ENE 7 9 4 5 1019.6 1019.5 0.0
18/10:00pm 19.1 21.0 15.8 81 2.0 CALM 0 0 0 0 1019.8 1019.7 0.0
18/09:30pm 20.3 20.9 16.7 80 2.2 N 9 13 5 7 1019.7 1019.6 0.0
18/09:00pm 21.1 21.9 17.3 79 2.3 NNW 9 13 5 7 1019.9 1019.8 0.0
18/08:30pm 20.5 21.4 16.5 78 2.4 N 7 7 4 4 1019.6 1019.5 0.0
18/08:00pm 21.2 21.7 16.6 75 2.8 N 9 9 5 5 1019.6 1019.5 0.0
18/07:30pm 22.2 22.2 17.1 73 3.1 NNE 13 19 7 10 1019.1 1019.0 0.0
18/07:00pm 21.6 21.5 17.0 75 2.8 NE 13 17 7 9 1018.9 1018.8 0.0
18/06:30pm 22.0 21.1 16.9 73 3.1 NE 17 20 9 11 1018.7 1018.6 0.0
18/06:00pm 22.3 22.2 17.0 72 3.2 NE 13 17 7 9 1018.5 1018.4 0.0
18/05:30pm 23.3 23.0 17.3 69 3.7 ENE 15 19 8 10 1018.3 1018.2 0.0
18/05:00pm 24.5 24.3 17.7 66 4.2 ENE 15 19 8 10 1018.4 1018.3 0.0
18/04:30pm 25.6 25.6 17.3 60 5.2 ENE 13 17 7 9 1018.3 1018.2 0.0
18/04:00pm 27.1 26.8 16.4 52 6.6 NE 13 19 7 10 1018.0 1017.9 0.0
18/03:30pm 28.2 27.3 14.8 44 8.1 NE 13 20 7 11 1018.0 1017.9 0.0
18/03:00pm 29.2 28.6 14.6 41 8.8 N 11 17 6 9 1018.1 1018.0 0.0
18/02:30pm 29.1 28.6 16.0 45 8.1 N 13 20 7 11 1018.2 1018.1 0.0
18/02:00pm 29.2 29.2 15.3 42 8.5 N 9 15 5 8 1018.6 1018.5 0.0
18/01:30pm 28.9 29.2 16.1 46 7.9 NW 9 15 5 8 1018.9 1018.8 0.0
18/01:00pm 29.0 29.5 16.5 46 7.8 NNE 9 20 5 11 1019.4 1019.3 0.0
18/12:30pm 28.6 29.7 17.2 50 7.2 WNW 7 15 4 8 1020.1 1020.0 0.0
18/12:00pm 27.3 27.8 16.6 52 6.6 WNW 9 13 5 7 1020.8 1020.7 0.0

Other Formats:

Comma delimited format used in spreadsheet applications
http://www.bom.gov.au/fwo/IDN60801/IDN60801.94573.axf

JavaScript Object Notation format (JSON) in row-major order
http://www.bom.gov.au/fwo/IDN60801/IDN60801.94573.json